sensor_id;sensor_type;location;lat;lon;timestamp;temperature;humidity
71237;DHT22;58984;51.960;5.582;2023-07-28T00:00:31;23.30;62.50
71237;DHT22;58984;51.960;5.582;2023-07-28T00:02:59;23.30;62.30
71237;DHT22;58984;51.960;5.582;2023-07-28T00:05:39;23.30;62.70
71237;DHT22;58984;51.960;5.582;2023-07-28T00:08:05;23.30;62.80
71237;DHT22;58984;51.960;5.582;2023-07-28T00:10:31;23.30;62.10
71237;DHT22;58984;51.960;5.582;2023-07-28T00:12:59;23.30;62.20
71237;DHT22;58984;51.960;5.582;2023-07-28T00:15:27;23.30;62.20
71237;DHT22;58984;51.960;5.582;2023-07-28T00:17:58;23.30;62.40
71237;DHT22;58984;51.960;5.582;2023-07-28T00:20:25;23.30;62.30
71237;DHT22;58984;51.960;5.582;2023-07-28T00:22:53;23.30;62.20
71237;DHT22;58984;51.960;5.582;2023-07-28T00:25:29;23.30;62.20
71237;DHT22;58984;51.960;5.582;2023-07-28T00:28:00;23.30;62.40
71237;DHT22;58984;51.960;5.582;2023-07-28T00:30:29;23.30;62.70
71237;DHT22;58984;51.960;5.582;2023-07-28T00:32:56;23.30;62.80
71237;DHT22;58984;51.960;5.582;2023-07-28T00:35:24;23.30;62.80
71237;DHT22;58984;51.960;5.582;2023-07-28T00:37:50;23.30;62.50
71237;DHT22;58984;51.960;5.582;2023-07-28T00:40:16;23.30;62.60
71237;DHT22;58984;51.960;5.582;2023-07-28T00:42:42;23.30;62.60
71237;DHT22;58984;51.960;5.582;2023-07-28T00:45:08;23.30;62.30
71237;DHT22;58984;51.960;5.582;2023-07-28T00:47:36;23.30;62.40
71237;DHT22;58984;51.960;5.582;2023-07-28T00:50:03;23.30;62.70
71237;DHT22;58984;51.960;5.582;2023-07-28T00:52:28;23.30;63.10
71237;DHT22;58984;51.960;5.582;2023-07-28T00:54:57;23.30;62.70
71237;DHT22;58984;51.960;5.582;2023-07-28T00:57:26;23.30;62.90
71237;DHT22;58984;51.960;5.582;2023-07-28T01:00:01;23.30;62.80
71237;DHT22;58984;51.960;5.582;2023-07-28T01:02:27;23.30;62.70
71237;DHT22;58984;51.960;5.582;2023-07-28T01:04:53;23.30;62.40
71237;DHT22;58984;51.960;5.582;2023-07-28T01:10:08;23.20;63.10
71237;DHT22;58984;51.960;5.582;2023-07-28T01:12:35;23.30;62.90
71237;DHT22;58984;51.960;5.582;2023-07-28T01:15:01;23.30;62.80
71237;DHT22;58984;51.960;5.582;2023-07-28T01:17:27;23.30;62.70
71237;DHT22;58984;51.960;5.582;2023-07-28T01:19:53;23.30;62.70
71237;DHT22;58984;51.960;5.582;2023-07-28T01:22:30;23.30;62.60
71237;DHT22;58984;51.960;5.582;2023-07-28T01:27:49;23.20;63.10
71237;DHT22;58984;51.960;5.582;2023-07-28T01:30:19;23.30;62.90
71237;DHT22;58984;51.960;5.582;2023-07-28T01:32:47;23.30;63.20
71237;DHT22;58984;51.960;5.582;2023-07-28T01:35:13;23.30;63.00
71237;DHT22;58984;51.960;5.582;2023-07-28T01:37:38;23.30;62.70
71237;DHT22;58984;51.960;5.582;2023-07-28T01:40:07;23.30;62.70
71237;DHT22;58984;51.960;5.582;2023-07-28T01:42:32;23.30;62.80
71237;DHT22;58984;51.960;5.582;2023-07-28T01:44:58;23.30;62.60
71237;DHT22;58984;51.960;5.582;2023-07-28T01:47:24;23.30;62.80
71237;DHT22;58984;51.960;5.582;2023-07-28T01:49:50;23.30;62.40
71237;DHT22;58984;51.960;5.582;2023-07-28T01:52:16;23.30;62.50
71237;DHT22;58984;51.960;5.582;2023-07-28T01:54:44;23.30;62.10
71237;DHT22;58984;51.960;5.582;2023-07-28T01:57:13;23.30;62.70
71237;DHT22;58984;51.960;5.582;2023-07-28T01:59:44;23.20;62.40
71237;DHT22;58984;51.960;5.582;2023-07-28T02:02:12;23.30;62.30
71237;DHT22;58984;51.960;5.582;2023-07-28T02:04:41;23.20;62.30
71237;DHT22;58984;51.960;5.582;2023-07-28T02:07:06;23.30;62.30
71237;DHT22;58984;51.960;5.582;2023-07-28T02:09:37;23.30;62.30
71237;DHT22;58984;51.960;5.582;2023-07-28T02:12:08;23.20;62.50
71237;DHT22;58984;51.960;5.582;2023-07-28T02:14:39;23.30;62.30
71237;DHT22;58984;51.960;5.582;2023-07-28T02:17:05;23.20;62.00
71237;DHT22;58984;51.960;5.582;2023-07-28T02:19:31;23.30;62.20
71237;DHT22;58984;51.960;5.582;2023-07-28T02:21:59;23.30;62.00
71237;DHT22;58984;51.960;5.582;2023-07-28T02:24:38;23.30;62.20
71237;DHT22;58984;51.960;5.582;2023-07-28T02:27:09;23.20;62.80
71237;DHT22;58984;51.960;5.582;2023-07-28T02:29:38;23.30;62.50
71237;DHT22;58984;51.960;5.582;2023-07-28T02:32:04;23.20;62.40
71237;DHT22;58984;51.960;5.582;2023-07-28T02:34:30;23.30;62.50
71237;DHT22;58984;51.960;5.582;2023-07-28T02:36:58;23.30;62.50
71237;DHT22;58984;51.960;5.582;2023-07-28T02:39:24;23.20;62.20
71237;DHT22;58984;51.960;5.582;2023-07-28T02:41:50;23.30;62.50
71237;DHT22;58984;51.960;5.582;2023-07-28T02:44:18;23.30;62.50
71237;DHT22;58984;51.960;5.582;2023-07-28T02:46:44;23.30;62.40
71237;DHT22;58984;51.960;5.582;2023-07-28T02:49:09;23.30;62.20
71237;DHT22;58984;51.960;5.582;2023-07-28T02:51:35;23.30;62.10
71237;DHT22;58984;51.960;5.582;2023-07-28T02:54:01;23.30;62.20
71237;DHT22;58984;51.960;5.582;2023-07-28T02:56:32;23.30;62.10
71237;DHT22;58984;51.960;5.582;2023-07-28T02:59:13;23.30;62.20
71237;DHT22;58984;51.960;5.582;2023-07-28T03:01:42;23.20;62.00
71237;DHT22;58984;51.960;5.582;2023-07-28T03:04:10;23.20;61.80
71237;DHT22;58984;51.960;5.582;2023-07-28T03:06:43;23.20;61.90
71237;DHT22;58984;51.960;5.582;2023-07-28T03:09:09;23.30;62.00
71237;DHT22;58984;51.960;5.582;2023-07-28T03:11:35;23.30;62.20
71237;DHT22;58984;51.960;5.582;2023-07-28T03:14:06;23.30;62.40
71237;DHT22;58984;51.960;5.582;2023-07-28T03:16:32;23.20;62.10
71237;DHT22;58984;51.960;5.582;2023-07-28T03:19:00;23.20;62.00
71237;DHT22;58984;51.960;5.582;2023-07-28T03:21:32;23.20;62.50
71237;DHT22;58984;51.960;5.582;2023-07-28T03:24:01;23.30;62.50
71237;DHT22;58984;51.960;5.582;2023-07-28T03:26:29;23.30;62.10
71237;DHT22;58984;51.960;5.582;2023-07-28T03:29:02;23.30;62.00
71237;DHT22;58984;51.960;5.582;2023-07-28T03:31:30;23.20;62.30
71237;DHT22;58984;51.960;5.582;2023-07-28T03:33:59;23.30;62.80
71237;DHT22;58984;51.960;5.582;2023-07-28T03:36:24;23.30;62.80
71237;DHT22;58984;51.960;5.582;2023-07-28T03:38:50;23.20;62.30
71237;DHT22;58984;51.960;5.582;2023-07-28T03:41:21;23.30;62.30
71237;DHT22;58984;51.960;5.582;2023-07-28T03:43:47;23.30;62.80
71237;DHT22;58984;51.960;5.582;2023-07-28T03:46:13;23.30;62.40
71237;DHT22;58984;51.960;5.582;2023-07-28T03:48:38;23.30;62.70
71237;DHT22;58984;51.960;5.582;2023-07-28T03:51:04;23.30;62.20
71237;DHT22;58984;51.960;5.582;2023-07-28T03:53:33;23.20;62.00
71237;DHT22;58984;51.960;5.582;2023-07-28T03:56:01;23.30;62.20
71237;DHT22;58984;51.960;5.582;2023-07-28T03:58:32;23.30;62.50
71237;DHT22;58984;51.960;5.582;2023-07-28T04:01:00;23.30;62.70
71237;DHT22;58984;51.960;5.582;2023-07-28T04:03:26;23.20;62.20
71237;DHT22;58984;51.960;5.582;2023-07-28T04:05:52;23.30;62.30
71237;DHT22;58984;51.960;5.582;2023-07-28T04:08:25;23.30;62.20
71237;DHT22;58984;51.960;5.582;2023-07-28T04:10:51;23.30;62.70
71237;DHT22;58984;51.960;5.582;2023-07-28T04:13:19;23.30;62.40
71237;DHT22;58984;51.960;5.582;2023-07-28T04:15:48;23.30;62.30
71237;DHT22;58984;51.960;5.582;2023-07-28T04:18:24;23.30;62.40
71237;DHT22;58984;51.960;5.582;2023-07-28T04:20:53;23.30;62.70
71237;DHT22;58984;51.960;5.582;2023-07-28T04:23:24;23.30;62.40
71237;DHT22;58984;51.960;5.582;2023-07-28T04:25:52;23.30;62.70
71237;DHT22;58984;51.960;5.582;2023-07-28T04:28:18;23.20;62.10
71237;DHT22;58984;51.960;5.582;2023-07-28T04:30:47;23.30;62.30
71237;DHT22;58984;51.960;5.582;2023-07-28T04:33:24;23.30;62.50
71237;DHT22;58984;51.960;5.582;2023-07-28T04:35:53;23.20;62.40
71237;DHT22;58984;51.960;5.582;2023-07-28T04:38:23;23.20;62.00
71237;DHT22;58984;51.960;5.582;2023-07-28T04:40:57;23.30;62.20
71237;DHT22;58984;51.960;5.582;2023-07-28T04:43:35;23.20;62.30
71237;DHT22;58984;51.960;5.582;2023-07-28T04:46:04;23.20;62.60
71237;DHT22;58984;51.960;5.582;2023-07-28T04:49:01;23.30;62.50
71237;DHT22;58984;51.960;5.582;2023-07-28T04:51:32;23.20;62.60
71237;DHT22;58984;51.960;5.582;2023-07-28T04:53:58;23.30;62.30
71237;DHT22;58984;51.960;5.582;2023-07-28T04:56:26;23.30;62.50
71237;DHT22;58984;51.960;5.582;2023-07-28T04:58:57;23.20;62.40
71237;DHT22;58984;51.960;5.582;2023-07-28T05:01:30;23.20;62.80
71237;DHT22;58984;51.960;5.582;2023-07-28T05:04:00;23.40;63.00
71237;DHT22;58984;51.960;5.582;2023-07-28T05:06:32;23.40;62.30
71237;DHT22;58984;51.960;5.582;2023-07-28T05:09:00;23.30;62.30
71237;DHT22;58984;51.960;5.582;2023-07-28T05:11:30;23.30;62.40
71237;DHT22;58984;51.960;5.582;2023-07-28T05:13:59;23.30;62.70
71237;DHT22;58984;51.960;5.582;2023-07-28T05:16:24;23.20;62.70
71237;DHT22;58984;51.960;5.582;2023-07-28T05:18:50;23.30;62.30
71237;DHT22;58984;51.960;5.582;2023-07-28T05:21:20;23.30;62.40
71237;DHT22;58984;51.960;5.582;2023-07-28T05:23:49;23.30;62.30
71237;DHT22;58984;51.960;5.582;2023-07-28T05:26:15;23.30;62.40
71237;DHT22;58984;51.960;5.582;2023-07-28T05:28:42;23.30;62.40
71237;DHT22;58984;51.960;5.582;2023-07-28T05:31:08;23.30;62.70
71237;DHT22;58984;51.960;5.582;2023-07-28T05:33:34;23.30;62.50
71237;DHT22;58984;51.960;5.582;2023-07-28T05:36:03;23.30;62.30
71237;DHT22;58984;51.960;5.582;2023-07-28T05:38:31;23.20;62.20
71237;DHT22;58984;51.960;5.582;2023-07-28T05:41:01;23.30;62.60
71237;DHT22;58984;51.960;5.582;2023-07-28T05:43:32;23.20;62.70
71237;DHT22;58984;51.960;5.582;2023-07-28T05:46:01;23.30;62.70
71237;DHT22;58984;51.960;5.582;2023-07-28T05:48:34;23.30;62.50
71237;DHT22;58984;51.960;5.582;2023-07-28T05:51:00;23.30;62.70
71237;DHT22;58984;51.960;5.582;2023-07-28T05:53:26;23.30;62.30
71237;DHT22;58984;51.960;5.582;2023-07-28T05:55:54;23.30;62.40
71237;DHT22;58984;51.960;5.582;2023-07-28T05:58:20;23.30;62.40
71237;DHT22;58984;51.960;5.582;2023-07-28T06:00:46;23.30;62.40
71237;DHT22;58984;51.960;5.582;2023-07-28T06:03:12;23.30;62.50
71237;DHT22;58984;51.960;5.582;2023-07-28T06:05:41;23.30;62.70
71237;DHT22;58984;51.960;5.582;2023-07-28T06:08:07;23.30;62.70
71237;DHT22;58984;51.960;5.582;2023-07-28T06:10:36;23.30;63.00
71237;DHT22;58984;51.960;5.582;2023-07-28T06:13:02;23.20;62.70
71237;DHT22;58984;51.960;5.582;2023-07-28T06:15:28;23.30;62.80
71237;DHT22;58984;51.960;5.582;2023-07-28T06:17:56;23.30;62.80
71237;DHT22;58984;51.960;5.582;2023-07-28T06:20:21;23.30;62.90
71237;DHT22;58984;51.960;5.582;2023-07-28T06:22:47;23.30;62.80
71237;DHT22;58984;51.960;5.582;2023-07-28T06:25:15;23.30;62.50
71237;DHT22;58984;51.960;5.582;2023-07-28T06:27:41;23.30;63.00
71237;DHT22;58984;51.960;5.582;2023-07-28T06:30:10;23.30;62.70
71237;DHT22;58984;51.960;5.582;2023-07-28T06:32:39;23.30;62.90
71237;DHT22;58984;51.960;5.582;2023-07-28T06:38:20;23.30;63.20
71237;DHT22;58984;51.960;5.582;2023-07-28T06:41:17;23.30;63.00
71237;DHT22;58984;51.960;5.582;2023-07-28T06:44:05;23.20;63.60
71237;DHT22;58984;51.960;5.582;2023-07-28T06:46:35;23.30;63.00
71237;DHT22;58984;51.960;5.582;2023-07-28T06:49:09;23.40;63.10
71237;DHT22;58984;51.960;5.582;2023-07-28T06:51:38;23.30;63.20
71237;DHT22;58984;51.960;5.582;2023-07-28T06:54:23;23.30;63.20
71237;DHT22;58984;51.960;5.582;2023-07-28T06:56:52;23.30;62.80
71237;DHT22;58984;51.960;5.582;2023-07-28T06:59:24;23.30;63.20
71237;DHT22;58984;51.960;5.582;2023-07-28T07:01:59;23.30;63.10
71237;DHT22;58984;51.960;5.582;2023-07-28T07:04:37;23.30;63.20
71237;DHT22;58984;51.960;5.582;2023-07-28T07:07:05;23.30;63.20
71237;DHT22;58984;51.960;5.582;2023-07-28T07:09:51;23.40;64.00
71237;DHT22;58984;51.960;5.582;2023-07-28T07:12:23;23.30;64.20
71237;DHT22;58984;51.960;5.582;2023-07-28T07:15:21;23.30;64.10
71237;DHT22;58984;51.960;5.582;2023-07-28T07:17:47;23.30;64.20
71237;DHT22;58984;51.960;5.582;2023-07-28T07:20:12;23.40;64.10
71237;DHT22;58984;51.960;5.582;2023-07-28T07:22:41;23.40;64.10
71237;DHT22;58984;51.960;5.582;2023-07-28T07:25:07;23.40;64.30
71237;DHT22;58984;51.960;5.582;2023-07-28T07:27:33;23.40;63.90
71237;DHT22;58984;51.960;5.582;2023-07-28T07:30:04;23.40;63.80
71237;DHT22;58984;51.960;5.582;2023-07-28T07:32:32;23.40;64.30
71237;DHT22;58984;51.960;5.582;2023-07-28T07:34:58;23.40;64.10
71237;DHT22;58984;51.960;5.582;2023-07-28T07:37:31;23.40;64.20
71237;DHT22;58984;51.960;5.582;2023-07-28T07:40:00;23.30;64.10
71237;DHT22;58984;51.960;5.582;2023-07-28T07:42:30;23.40;64.00
71237;DHT22;58984;51.960;5.582;2023-07-28T07:45:19;23.40;64.20
71237;DHT22;58984;51.960;5.582;2023-07-28T07:47:45;23.50;63.90
71237;DHT22;58984;51.960;5.582;2023-07-28T07:50:37;23.50;64.10
71237;DHT22;58984;51.960;5.582;2023-07-28T07:53:26;23.40;64.10
71237;DHT22;58984;51.960;5.582;2023-07-28T07:55:54;23.40;64.00
71237;DHT22;58984;51.960;5.582;2023-07-28T07:58:38;23.50;63.70
71237;DHT22;58984;51.960;5.582;2023-07-28T08:01:12;23.40;63.60
71237;DHT22;58984;51.960;5.582;2023-07-28T08:04:14;23.40;63.60
71237;DHT22;58984;51.960;5.582;2023-07-28T08:07:08;23.50;63.90
71237;DHT22;58984;51.960;5.582;2023-07-28T08:12:55;23.50;63.70
71237;DHT22;58984;51.960;5.582;2023-07-28T08:15:21;23.60;63.50
71237;DHT22;58984;51.960;5.582;2023-07-28T08:17:47;23.60;63.30
71237;DHT22;58984;51.960;5.582;2023-07-28T08:20:13;23.50;63.20
71237;DHT22;58984;51.960;5.582;2023-07-28T08:22:38;23.50;63.20
71237;DHT22;58984;51.960;5.582;2023-07-28T08:25:05;23.50;63.50
71237;DHT22;58984;51.960;5.582;2023-07-28T08:27:30;23.50;63.10
71237;DHT22;58984;51.960;5.582;2023-07-28T08:29:56;23.50;63.30
71237;DHT22;58984;51.960;5.582;2023-07-28T08:32:24;23.60;63.50
71237;DHT22;58984;51.960;5.582;2023-07-28T08:34:50;23.60;63.40
71237;DHT22;58984;51.960;5.582;2023-07-28T08:37:15;23.60;63.30
71237;DHT22;58984;51.960;5.582;2023-07-28T08:39:41;23.60;63.30
71237;DHT22;58984;51.960;5.582;2023-07-28T08:42:06;23.60;63.30
71237;DHT22;58984;51.960;5.582;2023-07-28T08:44:33;23.60;63.10
71237;DHT22;58984;51.960;5.582;2023-07-28T08:47:04;23.60;63.10
71237;DHT22;58984;51.960;5.582;2023-07-28T08:49:30;23.60;63.20
71237;DHT22;58984;51.960;5.582;2023-07-28T08:52:01;23.60;63.10
71237;DHT22;58984;51.960;5.582;2023-07-28T08:54:27;23.60;63.10
71237;DHT22;58984;51.960;5.582;2023-07-28T08:56:53;23.60;63.20
71237;DHT22;58984;51.960;5.582;2023-07-28T08:59:23;23.60;63.20
71237;DHT22;58984;51.960;5.582;2023-07-28T09:01:51;23.60;63.20
71237;DHT22;58984;51.960;5.582;2023-07-28T09:04:17;23.70;63.30
71237;DHT22;58984;51.960;5.582;2023-07-28T09:06:47;23.70;63.30
71237;DHT22;58984;51.960;5.582;2023-07-28T09:09:20;23.60;63.20
71237;DHT22;58984;51.960;5.582;2023-07-28T09:11:49;23.70;63.20
71237;DHT22;58984;51.960;5.582;2023-07-28T09:14:16;23.70;63.20
71237;DHT22;58984;51.960;5.582;2023-07-28T09:16:42;23.70;63.00
71237;DHT22;58984;51.960;5.582;2023-07-28T09:19:09;23.80;63.10
71237;DHT22;58984;51.960;5.582;2023-07-28T09:21:35;23.80;63.00
71237;DHT22;58984;51.960;5.582;2023-07-28T09:24:03;23.70;63.00
71237;DHT22;58984;51.960;5.582;2023-07-28T09:29:22;23.80;63.20
71237;DHT22;58984;51.960;5.582;2023-07-28T09:34:27;23.90;62.90
71237;DHT22;58984;51.960;5.582;2023-07-28T09:36:56;23.90;63.30
71237;DHT22;58984;51.960;5.582;2023-07-28T09:39:22;23.90;63.10
71237;DHT22;58984;51.960;5.582;2023-07-28T09:41:48;24.00;63.30
71237;DHT22;58984;51.960;5.582;2023-07-28T09:44:15;24.00;63.30
71237;DHT22;58984;51.960;5.582;2023-07-28T09:46:56;24.00;63.30
71237;DHT22;58984;51.960;5.582;2023-07-28T09:49:35;24.00;63.60
71237;DHT22;58984;51.960;5.582;2023-07-28T09:52:08;24.10;63.60
71237;DHT22;58984;51.960;5.582;2023-07-28T09:54:39;24.10;63.90
71237;DHT22;58984;51.960;5.582;2023-07-28T09:57:10;24.10;63.80
71237;DHT22;58984;51.960;5.582;2023-07-28T09:59:39;24.20;63.70
71237;DHT22;58984;51.960;5.582;2023-07-28T10:02:05;24.20;63.60
71237;DHT22;58984;51.960;5.582;2023-07-28T10:04:35;24.30;63.50
71237;DHT22;58984;51.960;5.582;2023-07-28T10:07:02;24.30;63.50
71237;DHT22;58984;51.960;5.582;2023-07-28T10:09:30;24.30;63.70
71237;DHT22;58984;51.960;5.582;2023-07-28T10:12:00;24.40;63.90
71237;DHT22;58984;51.960;5.582;2023-07-28T10:14:36;24.40;63.90
71237;DHT22;58984;51.960;5.582;2023-07-28T10:17:04;24.40;63.80
71237;DHT22;58984;51.960;5.582;2023-07-28T10:19:36;24.50;63.70
71237;DHT22;58984;51.960;5.582;2023-07-28T10:22:04;24.50;63.70
71237;DHT22;58984;51.960;5.582;2023-07-28T10:24:51;24.60;63.80
71237;DHT22;58984;51.960;5.582;2023-07-28T10:27:45;24.50;64.00
71237;DHT22;58984;51.960;5.582;2023-07-28T10:30:12;24.60;63.90
71237;DHT22;58984;51.960;5.582;2023-07-28T10:35:22;24.70;63.60
71237;DHT22;58984;51.960;5.582;2023-07-28T10:37:47;24.70;63.60
71237;DHT22;58984;51.960;5.582;2023-07-28T10:40:32;24.80;63.30
71237;DHT22;58984;51.960;5.582;2023-07-28T10:43:00;24.70;63.40
71237;DHT22;58984;51.960;5.582;2023-07-28T10:45:27;24.90;63.20
71237;DHT22;58984;51.960;5.582;2023-07-28T10:47:54;24.90;63.20
71237;DHT22;58984;51.960;5.582;2023-07-28T10:50:27;24.90;63.20
71237;DHT22;58984;51.960;5.582;2023-07-28T10:52:53;24.90;63.20
71237;DHT22;58984;51.960;5.582;2023-07-28T10:55:21;25.00;63.10
71237;DHT22;58984;51.960;5.582;2023-07-28T10:57:48;25.00;62.90
71237;DHT22;58984;51.960;5.582;2023-07-28T11:00:19;25.00;62.80
71237;DHT22;58984;51.960;5.582;2023-07-28T11:02:45;25.00;62.70
71237;DHT22;58984;51.960;5.582;2023-07-28T11:05:13;25.10;62.90
71237;DHT22;58984;51.960;5.582;2023-07-28T11:07:43;25.10;62.70
71237;DHT22;58984;51.960;5.582;2023-07-28T11:10:10;25.10;62.70
71237;DHT22;58984;51.960;5.582;2023-07-28T11:12:39;25.10;62.70
71237;DHT22;58984;51.960;5.582;2023-07-28T11:15:08;25.10;62.70
71237;DHT22;58984;51.960;5.582;2023-07-28T11:17:40;25.20;62.70
71237;DHT22;58984;51.960;5.582;2023-07-28T11:20:27;25.20;62.80
71237;DHT22;58984;51.960;5.582;2023-07-28T11:23:02;25.10;62.70
71237;DHT22;58984;51.960;5.582;2023-07-28T11:25:31;25.20;62.80
71237;DHT22;58984;51.960;5.582;2023-07-28T11:27:57;25.20;62.70
71237;DHT22;58984;51.960;5.582;2023-07-28T11:30:26;25.20;62.70
71237;DHT22;58984;51.960;5.582;2023-07-28T11:32:52;25.20;62.70
71237;DHT22;58984;51.960;5.582;2023-07-28T11:35:20;25.20;62.80
71237;DHT22;58984;51.960;5.582;2023-07-28T11:37:49;25.20;62.80
71237;DHT22;58984;51.960;5.582;2023-07-28T11:40:17;25.20;62.70
71237;DHT22;58984;51.960;5.582;2023-07-28T11:42:50;25.30;62.80
71237;DHT22;58984;51.960;5.582;2023-07-28T11:45:19;25.20;62.70
71237;DHT22;58984;51.960;5.582;2023-07-28T11:50:27;25.20;62.70
71237;DHT22;58984;51.960;5.582;2023-07-28T11:52:53;25.30;62.80
71237;DHT22;58984;51.960;5.582;2023-07-28T11:55:19;25.30;62.80
71237;DHT22;58984;51.960;5.582;2023-07-28T11:57:46;25.30;62.80
71237;DHT22;58984;51.960;5.582;2023-07-28T12:00:12;25.40;62.90
71237;DHT22;58984;51.960;5.582;2023-07-28T12:02:42;25.40;62.80
71237;DHT22;58984;51.960;5.582;2023-07-28T12:05:17;25.40;62.80
71237;DHT22;58984;51.960;5.582;2023-07-28T12:07:52;25.40;62.80
71237;DHT22;58984;51.960;5.582;2023-07-28T12:10:18;25.40;62.80
71237;DHT22;58984;51.960;5.582;2023-07-28T12:12:47;25.50;62.70
71237;DHT22;58984;51.960;5.582;2023-07-28T12:18:06;25.50;62.70
71237;DHT22;58984;51.960;5.582;2023-07-28T12:20:38;25.50;62.90
71237;DHT22;58984;51.960;5.582;2023-07-28T12:23:05;25.50;62.40
71237;DHT22;58984;51.960;5.582;2023-07-28T12:25:32;25.60;62.60
71237;DHT22;58984;51.960;5.582;2023-07-28T12:27:58;25.60;62.60
71237;DHT22;58984;51.960;5.582;2023-07-28T12:30:23;25.60;62.60
71237;DHT22;58984;51.960;5.582;2023-07-28T12:32:49;25.60;62.70
71237;DHT22;58984;51.960;5.582;2023-07-28T12:35:15;25.60;62.60
71237;DHT22;58984;51.960;5.582;2023-07-28T12:37:40;25.70;62.60
71237;DHT22;58984;51.960;5.582;2023-07-28T12:40:07;25.70;62.70
71237;DHT22;58984;51.960;5.582;2023-07-28T12:42:33;25.70;62.60
71237;DHT22;58984;51.960;5.582;2023-07-28T12:44:59;25.80;62.60
71237;DHT22;58984;51.960;5.582;2023-07-28T12:47:25;25.80;62.50
71237;DHT22;58984;51.960;5.582;2023-07-28T12:49:50;25.80;62.50
71237;DHT22;58984;51.960;5.582;2023-07-28T12:52:16;25.80;62.50
71237;DHT22;58984;51.960;5.582;2023-07-28T12:54:41;25.90;62.30
71237;DHT22;58984;51.960;5.582;2023-07-28T12:57:09;25.90;62.30
71237;DHT22;58984;51.960;5.582;2023-07-28T12:59:36;25.90;62.30
71237;DHT22;58984;51.960;5.582;2023-07-28T13:02:02;25.90;62.30
71237;DHT22;58984;51.960;5.582;2023-07-28T13:04:28;25.90;62.30
71237;DHT22;58984;51.960;5.582;2023-07-28T13:06:54;26.00;62.40
71237;DHT22;58984;51.960;5.582;2023-07-28T13:09:20;26.00;62.50
71237;DHT22;58984;51.960;5.582;2023-07-28T13:11:45;26.00;62.40
71237;DHT22;58984;51.960;5.582;2023-07-28T13:14:11;26.00;62.30
71237;DHT22;58984;51.960;5.582;2023-07-28T13:16:36;26.00;62.40
71237;DHT22;58984;51.960;5.582;2023-07-28T13:19:04;26.10;62.30
71237;DHT22;58984;51.960;5.582;2023-07-28T13:21:29;26.10;62.30
71237;DHT22;58984;51.960;5.582;2023-07-28T13:23:55;26.10;62.20
71237;DHT22;58984;51.960;5.582;2023-07-28T13:26:20;26.20;62.20
71237;DHT22;58984;51.960;5.582;2023-07-28T13:28:46;26.20;62.30
71237;DHT22;58984;51.960;5.582;2023-07-28T13:31:16;26.20;62.20
71237;DHT22;58984;51.960;5.582;2023-07-28T13:33:42;26.20;62.10
71237;DHT22;58984;51.960;5.582;2023-07-28T13:36:08;26.20;62.10
71237;DHT22;58984;51.960;5.582;2023-07-28T13:38:34;26.20;62.10
71237;DHT22;58984;51.960;5.582;2023-07-28T13:41:00;26.30;62.30
71237;DHT22;58984;51.960;5.582;2023-07-28T13:43:26;26.30;62.20
71237;DHT22;58984;51.960;5.582;2023-07-28T13:45:51;26.30;62.10
71237;DHT22;58984;51.960;5.582;2023-07-28T13:48:17;26.30;62.10
71237;DHT22;58984;51.960;5.582;2023-07-28T13:50:42;26.30;62.10
71237;DHT22;58984;51.960;5.582;2023-07-28T13:53:09;26.40;62.10
71237;DHT22;58984;51.960;5.582;2023-07-28T13:55:35;26.40;62.20
71237;DHT22;58984;51.960;5.582;2023-07-28T13:58:00;26.40;62.00
71237;DHT22;58984;51.960;5.582;2023-07-28T14:00:26;26.40;62.00
71237;DHT22;58984;51.960;5.582;2023-07-28T14:02:52;26.40;62.00
71237;DHT22;58984;51.960;5.582;2023-07-28T14:05:17;26.40;61.90
71237;DHT22;58984;51.960;5.582;2023-07-28T14:07:44;26.40;61.90
71237;DHT22;58984;51.960;5.582;2023-07-28T14:10:10;26.40;61.90
71237;DHT22;58984;51.960;5.582;2023-07-28T14:12:35;26.40;61.80
71237;DHT22;58984;51.960;5.582;2023-07-28T14:15:01;26.50;61.80
71237;DHT22;58984;51.960;5.582;2023-07-28T14:17:27;26.50;61.70
71237;DHT22;58984;51.960;5.582;2023-07-28T14:19:52;26.50;61.70
71237;DHT22;58984;51.960;5.582;2023-07-28T14:22:18;26.50;61.60
71237;DHT22;58984;51.960;5.582;2023-07-28T14:24:43;26.50;61.60
71237;DHT22;58984;51.960;5.582;2023-07-28T14:27:09;26.50;61.60
71237;DHT22;58984;51.960;5.582;2023-07-28T14:29:34;26.50;61.60
71237;DHT22;58984;51.960;5.582;2023-07-28T14:32:00;26.50;61.50
71237;DHT22;58984;51.960;5.582;2023-07-28T14:34:25;26.60;61.60
71237;DHT22;58984;51.960;5.582;2023-07-28T14:36:51;26.60;61.50
71237;DHT22;58984;51.960;5.582;2023-07-28T14:39:17;26.60;61.40
71237;DHT22;58984;51.960;5.582;2023-07-28T14:41:43;26.60;61.40
71237;DHT22;58984;51.960;5.582;2023-07-28T14:44:08;26.60;61.40
71237;DHT22;58984;51.960;5.582;2023-07-28T14:46:37;26.60;61.40
71237;DHT22;58984;51.960;5.582;2023-07-28T14:49:03;26.60;62.10
71237;DHT22;58984;51.960;5.582;2023-07-28T14:51:28;26.60;61.20
71237;DHT22;58984;51.960;5.582;2023-07-28T14:53:54;26.60;61.30
71237;DHT22;58984;51.960;5.582;2023-07-28T14:56:20;26.60;61.20
71237;DHT22;58984;51.960;5.582;2023-07-28T14:58:50;26.60;61.10
71237;DHT22;58984;51.960;5.582;2023-07-28T15:01:16;26.60;61.10
71237;DHT22;58984;51.960;5.582;2023-07-28T15:03:42;26.60;61.10
71237;DHT22;58984;51.960;5.582;2023-07-28T15:06:08;26.50;61.10
71237;DHT22;58984;51.960;5.582;2023-07-28T15:08:34;26.50;61.00
71237;DHT22;58984;51.960;5.582;2023-07-28T15:11:00;26.50;61.00
71237;DHT22;58984;51.960;5.582;2023-07-28T15:13:25;26.50;61.00
71237;DHT22;58984;51.960;5.582;2023-07-28T15:15:51;26.60;61.00
71237;DHT22;58984;51.960;5.582;2023-07-28T15:18:17;26.60;61.00
71237;DHT22;58984;51.960;5.582;2023-07-28T15:20:43;26.50;60.90
71237;DHT22;58984;51.960;5.582;2023-07-28T15:23:09;26.50;61.20
71237;DHT22;58984;51.960;5.582;2023-07-28T15:25:35;26.60;61.00
71237;DHT22;58984;51.960;5.582;2023-07-28T15:28:00;26.60;61.00
71237;DHT22;58984;51.960;5.582;2023-07-28T15:30:26;26.60;61.00
71237;DHT22;58984;51.960;5.582;2023-07-28T15:32:51;26.60;61.00
71237;DHT22;58984;51.960;5.582;2023-07-28T15:35:17;26.50;60.90
71237;DHT22;58984;51.960;5.582;2023-07-28T15:37:44;26.60;60.90
71237;DHT22;58984;51.960;5.582;2023-07-28T15:40:09;26.50;60.40
71237;DHT22;58984;51.960;5.582;2023-07-28T15:42:35;26.60;60.90
71237;DHT22;58984;51.960;5.582;2023-07-28T15:45:01;26.60;60.80
71237;DHT22;58984;51.960;5.582;2023-07-28T15:47:26;26.60;60.80
71237;DHT22;58984;51.960;5.582;2023-07-28T15:49:52;26.60;60.70
71237;DHT22;58984;51.960;5.582;2023-07-28T15:52:19;26.60;60.70
71237;DHT22;58984;51.960;5.582;2023-07-28T15:54:45;26.60;60.60
71237;DHT22;58984;51.960;5.582;2023-07-28T15:57:10;26.50;60.50
71237;DHT22;58984;51.960;5.582;2023-07-28T15:59:36;26.50;60.50
71237;DHT22;58984;51.960;5.582;2023-07-28T16:02:03;26.60;60.60
71237;DHT22;58984;51.960;5.582;2023-07-28T16:04:28;26.50;60.50